Time;durP1;ratioP1;P1;durP2;ratioP2;P2;SDS_P1;SDS_P2;PMS_P1;PMS_P2;Temp;Humidity;BMP_temperature;BMP_pressure;BME280_temperature;BME280_humidity;BME280_pressure;Samples;Min_cycle;Max_cycle;Signal;HPM_P1;HPM_P2
2023/03/10 00:01:13;;;;;;;0.80;0.80;;;2.20;99.90;;;;;;4404654;32;20437;-72
2023/03/10 00:03:39;;;;;;;3.25;0.93;;;2.40;99.90;;;;;;4407684;32;20449;-72
2023/03/10 00:06:05;;;;;;;1.85;1.75;;;2.40;99.90;;;;;;4404110;32;20084;-72
2023/03/10 00:08:31;;;;;;;1.83;1.27;;;2.40;99.90;;;;;;4404980;32;20066;-72
2023/03/10 00:10:56;;;;;;;1.00;0.88;;;2.40;99.90;;;;;;4406130;32;20419;-72
2023/03/10 00:13:22;;;;;;;1.00;0.80;;;2.40;99.90;;;;;;4407005;32;20090;-72
2023/03/10 00:15:48;;;;;;;1.30;1.02;;;2.40;99.90;;;;;;4407092;32;20096;-73
2023/03/10 00:18:13;;;;;;;0.70;0.70;;;2.40;99.90;;;;;;4404870;32;20101;-72
2023/03/10 00:20:39;;;;;;;0.60;0.60;;;2.40;99.90;;;;;;4405612;32;20093;-72
2023/03/10 00:23:04;;;;;;;0.68;0.68;;;2.40;99.90;;;;;;4405843;32;20092;-72
2023/03/10 00:25:30;;;;;;;1.48;1.37;;;2.30;99.90;;;;;;4404073;32;20093;-72
2023/03/10 00:27:55;;;;;;;0.85;0.82;;;2.40;99.90;;;;;;4405139;32;20891;-71
2023/03/10 00:30:21;;;;;;;0.43;0.43;;;2.40;99.90;;;;;;4403853;32;20066;-72
2023/03/10 00:32:46;;;;;;;0.60;0.60;;;2.40;99.90;;;;;;4403578;32;20086;-72
2023/03/10 00:35:12;;;;;;;0.73;0.73;;;2.50;99.90;;;;;;4405375;32;20093;-72
2023/03/10 00:37:37;;;;;;;0.82;0.82;;;2.60;99.90;;;;;;4407302;32;20177;-72
2023/03/10 00:40:06;;;;;;;1.08;0.98;;;2.50;99.90;;;;;;4405626;32;20062;-71
2023/03/10 00:42:32;;;;;;;0.62;0.62;;;2.50;99.90;;;;;;4404389;32;20419;-71
2023/03/10 00:44:57;;;;;;;1.00;1.00;;;2.50;99.90;;;;;;4405318;32;20134;-72
2023/03/10 00:47:23;;;;;;;0.70;0.70;;;2.50;99.90;;;;;;4405593;32;20073;-71
2023/03/10 00:49:48;;;;;;;3.72;1.48;;;2.50;99.90;;;;;;4403776;32;20163;-73
2023/03/10 00:52:14;;;;;;;0.40;0.40;;;2.40;99.90;;;;;;4406547;32;20854;-73
2023/03/10 00:54:40;;;;;;;0.85;0.85;;;2.40;99.90;;;;;;4405850;32;20112;-71
2023/03/10 00:57:07;;;;;;;0.70;0.70;;;2.40;99.90;;;;;;4403566;32;20077;-73
2023/03/10 00:59:32;;;;;;;0.68;0.68;;;2.40;99.90;;;;;;4403582;32;20081;-73
2023/03/10 01:01:57;;;;;;;0.60;0.60;;;2.30;99.90;;;;;;4403770;32;20549;-73
2023/03/10 01:04:23;;;;;;;0.52;0.52;;;2.30;99.90;;;;;;4404218;32;20090;-73
2023/03/10 01:06:48;;;;;;;0.52;0.52;;;2.30;99.90;;;;;;4403653;32;20201;-72
2023/03/10 01:09:14;;;;;;;0.70;0.70;;;2.30;99.90;;;;;;4405620;32;20082;-72
2023/03/10 01:11:40;;;;;;;5.55;1.45;;;2.30;99.90;;;;;;4405580;32;21052;-72
2023/03/10 01:14:07;;;;;;;0.68;0.68;;;2.30;99.90;;;;;;4398818;32;20415;-73
2023/03/10 01:16:33;;;;;;;0.98;0.98;;;2.30;99.90;;;;;;4398700;32;20520;-72
2023/03/10 01:18:59;;;;;;;4.70;1.58;;;2.30;99.90;;;;;;4403690;32;20143;-73
2023/03/10 01:21:28;;;;;;;0.73;0.73;;;2.30;99.90;;;;;;4404059;32;20082;-72
2023/03/10 01:23:53;;;;;;;0.82;0.82;;;2.30;99.90;;;;;;4403498;32;20085;-72
2023/03/10 01:26:19;;;;;;;2.75;1.70;;;2.30;99.90;;;;;;4395036;32;20098;-72
2023/03/10 01:28:46;;;;;;;0.50;0.50;;;2.40;99.90;;;;;;4403542;32;20081;-72
2023/03/10 01:31:12;;;;;;;0.70;0.70;;;2.40;99.90;;;;;;4400937;32;20246;-71
2023/03/10 01:33:39;;;;;;;3.42;1.25;;;2.40;99.90;;;;;;4402982;32;20521;-72
2023/03/10 01:36:08;;;;;;;0.57;0.57;;;2.30;99.90;;;;;;4405929;32;20134;-73
2023/03/10 01:38:33;;;;;;;1.48;1.37;;;2.40;99.90;;;;;;4404090;32;20459;-74
2023/03/10 01:40:59;;;;;;;0.70;0.70;;;2.40;99.90;;;;;;4406929;32;20082;-73
2023/03/10 01:43:27;;;;;;;1.50;0.93;;;2.40;99.90;;;;;;4404013;32;20133;-73
2023/03/10 01:46:14;;;;;;;4.75;0.93;;;2.30;99.90;;;;;;4403909;32;20529;-74
2023/03/10 01:48:40;;;;;;;2.92;2.17;;;2.30;99.90;;;;;;4393134;32;20111;-73
2023/03/10 01:51:05;;;;;;;1.75;1.27;;;2.30;99.90;;;;;;4406840;32;20069;-73
2023/03/10 01:53:32;;;;;;;10.52;1.80;;;2.40;99.90;;;;;;4409083;32;20423;-72
2023/03/10 01:56:01;;;;;;;1.40;1.27;;;2.40;99.90;;;;;;4408282;32;20114;-72
2023/03/10 01:58:33;;;;;;;3.22;1.90;;;2.40;99.90;;;;;;4406098;32;20069;-73
2023/03/10 02:00:58;;;;;;;0.82;0.82;;;2.40;99.90;;;;;;4405963;32;20085;-73
2023/03/10 02:03:31;;;;;;;0.80;0.80;;;2.40;99.90;;;;;;4407716;32;20078;-73
2023/03/10 02:06:00;;;;;;;0.95;0.82;;;2.40;99.90;;;;;;4403763;32;20166;-72
2023/03/10 02:08:31;;;;;;;1.42;1.33;;;2.50;99.90;;;;;;4405828;32;20069;-73
2023/03/10 02:10:58;;;;;;;0.52;0.52;;;2.50;99.90;;;;;;4406690;32;20583;-72
2023/03/10 02:13:23;;;;;;;0.75;0.75;;;2.40;99.90;;;;;;4408749;32;20173;-73
2023/03/10 02:15:49;;;;;;;0.62;0.62;;;2.40;99.90;;;;;;4399267;32;20208;-73
2023/03/10 02:18:15;;;;;;;0.57;0.57;;;2.50;99.90;;;;;;4405664;32;20109;-73
2023/03/10 02:21:06;;;;;;;0.47;0.47;;;2.50;99.90;;;;;;4406948;32;20481;-73
2023/03/10 02:23:40;;;;;;;0.47;0.47;;;2.50;99.90;;;;;;4396192;32;20540;-73
2023/03/10 02:26:21;;;;;;;0.77;0.77;;;2.50;99.90;;;;;;4400003;32;20077;-72
2023/03/10 02:28:47;;;;;;;0.88;0.88;;;2.50;99.90;;;;;;4403417;32;20153;-73
2023/03/10 02:31:14;;;;;;;2.55;1.02;;;2.40;99.90;;;;;;4404202;32;20150;-73
2023/03/10 02:33:42;;;;;;;2.58;1.33;;;2.40;99.90;;;;;;4405909;32;20102;-72
2023/03/10 02:36:16;;;;;;;0.40;0.40;;;2.40;99.90;;;;;;4404034;32;20110;-73
2023/03/10 02:38:42;;;;;;;0.80;0.80;;;2.40;99.90;;;;;;4406513;32;20085;-73
2023/03/10 02:41:28;;;;;;;1.37;0.93;;;2.50;99.90;;;;;;4405745;32;20106;-73
2023/03/10 02:43:56;;;;;;;0.57;0.57;;;2.40;99.90;;;;;;4406523;32;20166;-73
2023/03/10 02:46:22;;;;;;;0.73;0.73;;;2.50;99.90;;;;;;4407188;32;20073;-73
2023/03/10 02:48:48;;;;;;;0.60;0.60;;;2.50;99.90;;;;;;4409213;32;20086;-73
2023/03/10 02:51:18;;;;;;;1.55;1.20;;;2.50;99.90;;;;;;4405682;32;20098;-73
2023/03/10 02:53:43;;;;;;;0.80;0.80;;;2.50;99.90;;;;;;4403676;32;20094;-73
2023/03/10 02:56:09;;;;;;;0.52;0.52;;;2.50;99.90;;;;;;4404526;32;20176;-73
2023/03/10 02:58:35;;;;;;;0.70;0.68;;;2.60;99.90;;;;;;4405017;32;20054;-71
2023/03/10 03:01:01;;;;;;;0.65;0.65;;;2.50;99.90;;;;;;4406833;32;20118;-73
2023/03/10 03:03:26;;;;;;;0.65;0.65;;;2.50;99.90;;;;;;4404708;32;20061;-71
2023/03/10 03:05:52;;;;;;;0.60;0.60;;;2.60;99.90;;;;;;4408125;32;20164;-73
2023/03/10 03:08:19;;;;;;;0.47;0.47;;;2.60;99.90;;;;;;4402907;32;20470;-73
2023/03/10 03:10:45;;;;;;;0.52;0.52;;;2.50;99.90;;;;;;4408956;32;20095;-74
2023/03/10 03:13:11;;;;;;;0.60;0.60;;;2.60;99.90;;;;;;4409135;32;20086;-73
2023/03/10 03:15:37;;;;;;;0.82;0.77;;;2.60;99.90;;;;;;4406927;32;20875;-74
2023/03/10 03:18:03;;;;;;;0.75;0.75;;;2.60;99.90;;;;;;4405637;32;20070;-73
2023/03/10 03:20:30;;;;;;;0.50;0.50;;;2.70;99.90;;;;;;4408411;32;20414;-73
2023/03/10 03:22:57;;;;;;;0.60;0.60;;;2.70;99.90;;;;;;4405173;32;21071;-73
2023/03/10 03:25:25;;;;;;;0.73;0.73;;;2.70;99.90;;;;;;4405600;32;20153;-73
2023/03/10 03:27:50;;;;;;;49.92;1.40;;;2.60;99.90;;;;;;4406810;32;20094;-73
2023/03/10 03:30:20;;;;;;;0.50;0.50;;;2.60;99.90;;;;;;4407411;32;20240;-73
2023/03/10 03:32:46;;;;;;;0.40;0.40;;;2.60;99.90;;;;;;4406195;32;20085;-76
2023/03/10 03:35:17;;;;;;;0.75;0.75;;;2.60;99.90;;;;;;4406449;32;20517;-73
2023/03/10 03:37:43;;;;;;;0.40;0.40;;;2.60;99.90;;;;;;4408670;32;20057;-72
2023/03/10 03:40:11;;;;;;;1.00;0.82;;;2.60;99.90;;;;;;4404276;32;20098;-73
2023/03/10 03:42:39;;;;;;;1.55;1.02;;;2.60;99.90;;;;;;4404656;32;20070;-72
2023/03/10 03:45:05;;;;;;;1.35;1.30;;;2.60;99.90;;;;;;4406243;32;21473;-72
2023/03/10 03:47:30;;;;;;;0.60;0.60;;;2.50;99.90;;;;;;4405805;32;20105;-72
2023/03/10 03:49:56;;;;;;;0.40;0.40;;;2.50;99.90;;;;;;4406617;32;20140;-72
2023/03/10 03:52:22;;;;;;;1.80;1.10;;;2.50;99.90;;;;;;4408179;32;20086;-72
2023/03/10 03:54:47;;;;;;;0.40;0.40;;;2.50;99.90;;;;;;4406473;32;20073;-72
2023/03/10 03:57:13;;;;;;;1.20;1.12;;;2.50;99.90;;;;;;4407275;32;20219;-73
2023/03/10 03:59:38;;;;;;;0.50;0.50;;;2.50;99.90;;;;;;4404584;32;20089;-74
2023/03/10 04:02:04;;;;;;;0.77;0.77;;;2.60;99.90;;;;;;4405373;32;20089;-73
2023/03/10 04:04:29;;;;;;;1.23;1.15;;;2.50;99.90;;;;;;4405964;32;20188;-73
2023/03/10 04:06:55;;;;;;;3.90;1.48;;;2.60;99.90;;;;;;4406902;32;20173;-73
2023/03/10 04:09:20;;;;;;;0.40;0.40;;;2.60;99.90;;;;;;4409655;32;20161;-73
2023/03/10 04:11:46;;;;;;;0.50;0.50;;;2.60;99.90;;;;;;4407217;32;20069;-74
2023/03/10 04:14:11;;;;;;;0.57;0.57;;;2.60;99.90;;;;;;4406660;32;21310;-74
2023/03/10 04:16:37;;;;;;;0.70;0.70;;;2.60;99.90;;;;;;4408017;32;21996;-72
2023/03/10 04:19:02;;;;;;;0.40;0.40;;;2.60;99.90;;;;;;4407879;32;20085;-71
2023/03/10 04:21:28;;;;;;;0.55;0.55;;;2.60;99.90;;;;;;4408790;32;20093;-72
2023/03/10 04:23:54;;;;;;;0.95;0.95;;;2.60;99.90;;;;;;4406716;32;20131;-72
2023/03/10 04:26:20;;;;;;;0.50;0.50;;;2.60;99.90;;;;;;4410982;32;20537;-72
2023/03/10 04:28:46;;;;;;;0.55;0.55;;;2.60;99.90;;;;;;4404649;32;20603;-73
2023/03/10 04:31:15;;;;;;;0.80;0.80;;;2.60;99.90;;;;;;4408344;32;20070;-73
2023/03/10 04:33:40;;;;;;;0.40;0.40;;;2.60;99.90;;;;;;4397960;32;20563;-72
2023/03/10 04:36:06;;;;;;;0.80;0.80;;;2.60;99.90;;;;;;4403792;32;20123;-72
2023/03/10 04:38:32;;;;;;;1.15;1.12;;;2.60;99.90;;;;;;4404452;32;20082;-72
2023/03/10 04:40:58;;;;;;;0.60;0.60;;;2.60;99.90;;;;;;4407366;32;20102;-74
2023/03/10 04:43:24;;;;;;;1.08;0.98;;;2.70;99.90;;;;;;4405540;32;20097;-72
2023/03/10 04:45:50;;;;;;;0.77;0.77;;;2.70;99.90;;;;;;4405910;32;20139;-72
2023/03/10 04:48:15;;;;;;;0.70;0.70;;;2.80;99.90;;;;;;4405322;32;20142;-73
2023/03/10 04:50:41;;;;;;;1.33;1.15;;;2.70;99.90;;;;;;4406382;32;20097;-73
2023/03/10 04:53:06;;;;;;;0.77;0.77;;;2.70;99.90;;;;;;4405797;32;20179;-73
2023/03/10 04:55:32;;;;;;;0.75;0.55;;;2.70;99.90;;;;;;4404645;32;20090;-73
2023/03/10 04:57:57;;;;;;;0.73;0.73;;;2.70;99.90;;;;;;4407031;32;20086;-73
2023/03/10 05:00:23;;;;;;;1.15;1.05;;;2.70;99.90;;;;;;4406212;32;20098;-73
2023/03/10 05:02:49;;;;;;;0.75;0.70;;;2.70;99.90;;;;;;4404288;32;20085;-73
2023/03/10 05:05:14;;;;;;;2.25;0.95;;;2.70;99.90;;;;;;4406833;32;20086;-73
2023/03/10 05:07:40;;;;;;;0.40;0.40;;;2.70;99.90;;;;;;4404502;32;20062;-73
2023/03/10 05:10:06;;;;;;;0.40;0.40;;;2.70;99.90;;;;;;4406088;32;20085;-73
2023/03/10 05:12:32;;;;;;;0.40;0.40;;;2.80;99.90;;;;;;4406397;32;20177;-73
2023/03/10 05:14:57;;;;;;;0.73;0.73;;;2.80;99.90;;;;;;4405730;32;20693;-73
2023/03/10 05:17:23;;;;;;;0.43;0.43;;;2.80;99.90;;;;;;4407339;32;20510;-73
2023/03/10 05:19:49;;;;;;;0.40;0.40;;;2.80;99.90;;;;;;4406256;32;20094;-73
2023/03/10 05:22:14;;;;;;;0.60;0.60;;;2.80;99.90;;;;;;4398461;32;20097;-74
2023/03/10 05:24:39;;;;;;;0.40;0.40;;;2.80;99.90;;;;;;4402339;32;20578;-73
2023/03/10 05:27:07;;;;;;;1.95;0.82;;;2.80;99.90;;;;;;4405766;32;20137;-73
2023/03/10 05:29:33;;;;;;;0.47;0.45;;;2.80;99.90;;;;;;4409602;32;20102;-73
2023/03/10 05:31:58;;;;;;;0.40;0.40;;;2.80;99.90;;;;;;4409161;32;21388;-73
2023/03/10 05:34:25;;;;;;;0.68;0.68;;;2.80;99.90;;;;;;4406282;32;20089;-73
2023/03/10 05:36:51;;;;;;;0.60;0.60;;;2.80;99.90;;;;;;4406720;32;20102;-73
2023/03/10 05:39:17;;;;;;;0.47;0.47;;;2.80;99.90;;;;;;4407474;32;20065;-73
2023/03/10 05:41:42;;;;;;;0.50;0.50;;;2.80;99.90;;;;;;4405753;32;20140;-73
2023/03/10 05:44:08;;;;;;;0.50;0.50;;;2.70;99.90;;;;;;4408725;32;20086;-73
2023/03/10 05:46:33;;;;;;;0.80;0.80;;;2.70;99.90;;;;;;4408467;32;20089;-73
2023/03/10 05:48:59;;;;;;;0.50;0.50;;;2.80;99.90;;;;;;4407213;32;20132;-73
2023/03/10 05:51:24;;;;;;;0.40;0.40;;;2.80;99.90;;;;;;4406953;32;20509;-72
2023/03/10 05:53:50;;;;;;;1.25;0.90;;;2.80;99.90;;;;;;4402279;32;20085;-73
2023/03/10 05:56:17;;;;;;;0.70;0.70;;;2.80;99.90;;;;;;4401870;32;20173;-73
2023/03/10 05:58:44;;;;;;;0.50;0.50;;;2.90;99.90;;;;;;4410189;32;20085;-73
2023/03/10 06:01:09;;;;;;;2.72;1.08;;;2.90;99.90;;;;;;4401036;32;20121;-74
2023/03/10 06:03:36;;;;;;;0.40;0.40;;;3.00;99.90;;;;;;4397511;32;20098;-74
2023/03/10 06:06:03;;;;;;;1.85;1.45;;;2.90;99.90;;;;;;4400480;32;20086;-74
2023/03/10 06:08:29;;;;;;;0.68;0.68;;;2.90;99.90;;;;;;4399830;32;20121;-71
2023/03/10 06:10:56;;;;;;;0.40;0.40;;;2.90;99.90;;;;;;4403042;32;20071;-73
2023/03/10 06:13:22;;;;;;;0.60;0.60;;;3.00;99.90;;;;;;4403303;32;20191;-73
2023/03/10 06:15:49;;;;;;;0.75;0.75;;;3.00;99.90;;;;;;4407893;32;20089;-73
2023/03/10 06:18:15;;;;;;;0.50;0.50;;;3.00;99.90;;;;;;4392436;32;20085;-72
2023/03/10 06:20:41;;;;;;;0.62;0.62;;;3.10;99.90;;;;;;4408605;32;20100;-74
2023/03/10 06:23:07;;;;;;;0.82;0.82;;;3.10;99.90;;;;;;4397964;32;20065;-74
2023/03/10 06:25:32;;;;;;;0.68;0.68;;;3.10;99.90;;;;;;4404104;32;20619;-74
2023/03/10 06:27:58;;;;;;;0.65;0.65;;;3.00;99.90;;;;;;4394765;32;20300;-72
2023/03/10 06:30:23;;;;;;;0.45;0.45;;;3.00;99.90;;;;;;4387948;32;20070;-73
2023/03/10 06:32:49;;;;;;;0.60;0.60;;;3.00;99.90;;;;;;4380837;32;20119;-75
2023/03/10 06:35:15;;;;;;;0.50;0.50;;;3.00;99.90;;;;;;4395581;32;20110;-73
2023/03/10 06:37:41;;;;;;;0.57;0.57;;;3.00;99.90;;;;;;4392972;32;20307;-73
2023/03/10 06:40:11;;;;;;;0.50;0.50;;;3.10;99.90;;;;;;4405371;32;20573;-72
2023/03/10 06:42:41;;;;;;;0.62;0.62;;;3.10;99.90;;;;;;4397156;32;20180;-75
2023/03/10 06:45:14;;;;;;;2.60;0.90;;;3.10;99.90;;;;;;4394090;32;20074;-74
2023/03/10 06:47:40;;;;;;;0.37;0.37;;;3.20;99.90;;;;;;4399175;32;20272;-74
2023/03/10 06:50:06;;;;;;;0.80;0.80;;;3.20;99.90;;;;;;4401481;32;20662;-73
2023/03/10 06:52:33;;;;;;;0.40;0.40;;;3.10;99.90;;;;;;4393446;32;20729;-74
2023/03/10 06:55:00;;;;;;;0.45;0.45;;;3.10;99.90;;;;;;4383726;32;20817;-74
2023/03/10 06:57:26;;;;;;;0.57;0.57;;;3.20;99.90;;;;;;4377835;32;20138;-73
2023/03/10 06:59:53;;;;;;;0.50;0.50;;;3.10;99.90;;;;;;4357906;32;20144;-73
2023/03/10 07:02:18;;;;;;;1.00;1.00;;;3.20;99.90;;;;;;4356953;32;20694;-73
2023/03/10 07:04:45;;;;;;;0.37;0.37;;;3.20;99.90;;;;;;4354928;32;20994;-72
2023/03/10 07:07:13;;;;;;;0.60;0.60;;;3.10;99.90;;;;;;4376253;32;20081;-73
2023/03/10 07:09:38;;;;;;;0.40;0.40;;;3.20;99.90;;;;;;4377800;32;20078;-74
2023/03/10 07:12:04;;;;;;;0.80;0.80;;;3.20;99.90;;;;;;4369448;32;20109;-74
2023/03/10 07:14:30;;;;;;;0.50;0.50;;;3.30;99.90;;;;;;4366965;32;20085;-74
2023/03/10 07:16:56;;;;;;;0.35;0.35;;;3.30;99.90;;;;;;4370722;32;20093;-73
2023/03/10 07:19:22;;;;;;;2.37;0.85;;;3.30;99.90;;;;;;4369674;32;20115;-71
2023/03/10 07:21:48;;;;;;;1.00;0.98;;;3.30;99.90;;;;;;4357699;32;20102;-74
2023/03/10 07:24:13;;;;;;;2.47;1.25;;;3.30;99.90;;;;;;4358082;32;21976;-73
2023/03/10 07:26:38;;;;;;;1.55;1.17;;;3.40;99.90;;;;;;4365044;32;21322;-70
2023/03/10 07:29:04;;;;;;;2.00;1.15;;;3.40;99.90;;;;;;4371951;32;20556;-72
2023/03/10 07:31:29;;;;;;;0.85;0.50;;;3.40;99.90;;;;;;4364744;32;20244;-73
2023/03/10 07:33:55;;;;;;;1.08;1.08;;;3.40;99.90;;;;;;4368200;32;20146;-73
2023/03/10 07:36:21;;;;;;;3.60;1.85;;;3.50;99.90;;;;;;4355334;32;20567;-73
2023/03/10 07:38:48;;;;;;;0.57;0.57;;;3.50;99.90;;;;;;4361765;32;20102;-74
2023/03/10 07:41:16;;;;;;;0.80;0.80;;;3.50;99.90;;;;;;4361162;32;20169;-72
2023/03/10 07:43:42;;;;;;;0.80;0.80;;;3.60;99.90;;;;;;4370406;32;20125;-75
2023/03/10 07:46:10;;;;;;;0.90;0.90;;;3.60;99.90;;;;;;4359232;32;20130;-73
2023/03/10 07:48:36;;;;;;;2.20;0.93;;;3.70;99.90;;;;;;4362639;32;21584;-71
2023/03/10 07:51:01;;;;;;;0.77;0.77;;;3.80;99.90;;;;;;4363320;32;21122;-73
2023/03/10 07:53:27;;;;;;;0.60;0.60;;;3.80;99.90;;;;;;4352878;32;20097;-72
2023/03/10 07:55:53;;;;;;;0.40;0.40;;;3.80;99.90;;;;;;4362674;32;20092;-74
2023/03/10 07:58:19;;;;;;;0.80;0.70;;;3.90;99.90;;;;;;4368043;32;20082;-74
2023/03/10 08:00:53;;;;;;;1.15;1.05;;;3.90;99.90;;;;;;4356152;32;20117;-73
2023/03/10 08:03:19;;;;;;;0.98;0.98;;;4.00;99.90;;;;;;4364527;32;20085;-75
2023/03/10 08:05:44;;;;;;;0.75;0.75;;;4.10;99.90;;;;;;4351622;32;20106;-74
2023/03/10 08:08:10;;;;;;;0.62;0.62;;;4.20;99.90;;;;;;4357792;32;20352;-74
2023/03/10 08:10:35;;;;;;;1.33;1.00;;;4.30;99.90;;;;;;4363618;32;20120;-75
2023/03/10 08:13:00;;;;;;;0.60;0.60;;;4.30;99.90;;;;;;4366869;32;20846;-72
2023/03/10 08:15:26;;;;;;;0.40;0.40;;;4.40;99.90;;;;;;4376334;32;20118;-73
2023/03/10 08:17:52;;;;;;;0.73;0.73;;;4.50;99.90;;;;;;4365984;32;20834;-74
2023/03/10 08:20:18;;;;;;;0.93;0.93;;;4.60;99.90;;;;;;4363215;32;20082;-75
2023/03/10 08:22:44;;;;;;;0.77;0.77;;;4.50;99.90;;;;;;4362624;32;20089;-72
2023/03/10 08:25:11;;;;;;;0.40;0.40;;;4.60;99.90;;;;;;4361260;32;20556;-74
2023/03/10 08:27:37;;;;;;;1.00;0.85;;;4.70;99.90;;;;;;4354873;32;20944;-74
2023/03/10 08:30:04;;;;;;;0.80;0.80;;;4.80;99.90;;;;;;4362829;32;20654;-74
2023/03/10 08:32:29;;;;;;;0.43;0.43;;;5.00;99.90;;;;;;4360612;32;20223;-71
2023/03/10 08:34:55;;;;;;;1.08;1.05;;;5.00;99.90;;;;;;4361731;32;20470;-74
2023/03/10 08:37:20;;;;;;;0.45;0.45;;;5.00;99.90;;;;;;4376819;32;20448;-73
2023/03/10 08:39:46;;;;;;;0.77;0.77;;;5.10;99.90;;;;;;4377536;32;20142;-72
2023/03/10 08:42:12;;;;;;;3.92;1.50;;;5.10;99.90;;;;;;4384302;32;20062;-73
2023/03/10 08:44:39;;;;;;;5.03;0.90;;;5.30;99.90;;;;;;4386130;32;20319;-73
2023/03/10 08:47:06;;;;;;;1.10;1.00;;;5.30;99.90;;;;;;4372224;32;20389;-71
2023/03/10 08:49:32;;;;;;;0.60;0.60;;;5.30;99.90;;;;;;4375348;32;21649;-73
2023/03/10 08:51:59;;;;;;;0.73;0.73;;;5.50;99.90;;;;;;4355420;32;20106;-73
2023/03/10 08:54:24;;;;;;;0.80;0.80;;;5.50;99.90;;;;;;4361158;32;20097;-73
2023/03/10 08:56:50;;;;;;;1.27;1.15;;;5.60;99.90;;;;;;4370290;32;20102;-73
2023/03/10 08:59:17;;;;;;;0.95;0.90;;;5.80;99.90;;;;;;4373477;32;20754;-74
2023/03/10 09:01:44;;;;;;;1.40;1.20;;;6.10;99.90;;;;;;4374560;32;20101;-74
2023/03/10 09:04:10;;;;;;;0.40;0.40;;;6.30;99.90;;;;;;4365078;32;20101;-73
2023/03/10 09:06:36;;;;;;;0.47;0.47;;;6.60;99.90;;;;;;4368529;32;20118;-74
2023/03/10 09:09:04;;;;;;;1.98;1.37;;;7.00;99.90;;;;;;4367185;32;20527;-72
2023/03/10 09:11:31;;;;;;;0.40;0.40;;;7.20;99.90;;;;;;4357486;32;20121;-73
2023/03/10 09:13:58;;;;;;;2.37;0.90;;;7.30;99.90;;;;;;4366741;32;20371;-74
2023/03/10 09:16:27;;;;;;;0.50;0.50;;;7.40;99.90;;;;;;4359210;32;20574;-75
2023/03/10 09:18:54;;;;;;;0.77;0.77;;;7.60;99.90;;;;;;4369149;32;20097;-74
2023/03/10 09:21:20;;;;;;;0.70;0.70;;;7.80;99.90;;;;;;4371446;32;20460;-75
2023/03/10 09:23:47;;;;;;;0.70;0.70;;;7.90;99.90;;;;;;4365551;32;20086;-73
2023/03/10 09:26:13;;;;;;;0.57;0.57;;;8.00;99.90;;;;;;4375570;32;20126;-72
2023/03/10 09:28:39;;;;;;;3.78;0.70;;;8.10;99.90;;;;;;4363610;32;20160;-74
2023/03/10 09:31:07;;;;;;;0.70;0.70;;;8.20;99.90;;;;;;4368638;32;20121;-74
2023/03/10 09:33:33;;;;;;;0.60;0.60;;;8.20;99.90;;;;;;4365535;32;20145;-75
2023/03/10 09:36:01;;;;;;;0.40;0.40;;;8.30;99.90;;;;;;4353378;32;20754;-75
2023/03/10 09:38:27;;;;;;;3.00;1.35;;;8.50;99.90;;;;;;4354999;32;20162;-75
2023/03/10 09:41:18;;;;;;;0.90;0.68;;;8.60;99.90;;;;;;4359633;32;20918;-74
2023/03/10 09:43:52;;;;;;;0.57;0.57;;;8.70;99.90;;;;;;4346033;32;20799;-72
2023/03/10 09:46:34;;;;;;;0.55;0.55;;;8.90;99.90;;;;;;4364797;32;20791;-74
2023/03/10 09:49:11;;;;;;;0.40;0.40;;;9.10;99.90;;;;;;4360974;32;20152;-74
2023/03/10 09:51:42;;;;;;;5.37;0.52;;;9.20;99.90;;;;;;4356748;32;20161;-72
2023/03/10 09:54:27;;;;;;;0.30;0.30;;;9.30;99.90;;;;;;4360972;32;20153;-73
2023/03/10 09:56:55;;;;;;;0.45;0.45;;;9.30;99.90;;;;;;4369058;32;20119;-76
2023/03/10 09:59:29;;;;;;;0.40;0.40;;;9.40;99.90;;;;;;4360408;32;20582;-75
2023/03/10 10:01:56;;;;;;;2.90;0.85;;;9.40;99.90;;;;;;4374019;32;20093;-74
2023/03/10 10:04:28;;;;;;;0.65;0.52;;;9.40;99.90;;;;;;4349289;32;20112;-74
2023/03/10 10:06:56;;;;;;;1.62;1.00;;;9.30;99.90;;;;;;4364474;32;20746;-75
2023/03/10 10:10:04;;;;;;;0.65;0.65;;;9.30;99.90;;;;;;4353975;32;20657;-74
2023/03/10 10:12:31;;;;;;;1.12;1.02;;;9.20;99.90;;;;;;4346525;32;20086;-74
2023/03/10 10:15:05;;;;;;;0.62;0.62;;;9.20;99.90;;;;;;4350622;32;20548;-77
2023/03/10 10:17:38;;;;;;;0.40;0.40;;;9.10;99.90;;;;;;4357276;32;25067;-74
2023/03/10 10:20:17;;;;;;;0.55;0.40;;;9.10;99.90;;;;;;4369192;32;20114;-73
2023/03/10 10:22:44;;;;;;;0.40;0.40;;;9.10;99.90;;;;;;4358018;32;20127;-74
2023/03/10 10:25:29;;;;;;;0.60;0.60;;;9.10;99.90;;;;;;4360295;32;20137;-74
2023/03/10 10:27:57;;;;;;;2.25;1.08;;;9.00;99.90;;;;;;4354153;32;20550;-76
2023/03/10 10:30:33;;;;;;;0.98;0.73;;;8.90;99.90;;;;;;4353899;32;20114;-72
2023/03/10 10:33:03;;;;;;;0.30;0.30;;;8.80;99.90;;;;;;4345695;32;20102;-76
2023/03/10 10:35:33;;;;;;;0.50;0.50;;;8.70;99.90;;;;;;4374401;32;20085;-74
2023/03/10 10:38:02;;;;;;;1.85;1.15;;;8.70;99.90;;;;;;4371174;32;20818;-73
2023/03/10 10:40:32;;;;;;;0.50;0.50;;;8.70;99.90;;;;;;4355513;32;20118;-73
2023/03/10 10:42:59;;;;;;;0.40;0.40;;;8.60;99.90;;;;;;4369446;32;20684;-75
2023/03/10 10:45:30;;;;;;;0.40;0.40;;;8.60;99.90;;;;;;4363972;32;20106;-74
2023/03/10 10:47:56;;;;;;;0.55;0.55;;;8.80;99.90;;;;;;4349428;32;20750;-72
2023/03/10 10:50:28;;;;;;;1.08;0.80;;;8.80;99.90;;;;;;4355190;32;20081;-74
2023/03/10 10:53:17;;;;;;;0.50;0.50;;;8.80;99.90;;;;;;4366124;32;20469;-75
2023/03/10 10:55:44;;;;;;;1.05;0.60;;;8.70;99.90;;;;;;4351928;32;20093;-72
2023/03/10 10:58:35;;;;;;;2.42;0.80;;;8.80;99.90;;;;;;4352471;32;20881;-74
2023/03/10 11:01:05;;;;;;;0.50;0.50;;;8.70;99.90;;;;;;4356540;32;21662;-74
2023/03/10 11:03:35;;;;;;;0.30;0.30;;;8.60;99.90;;;;;;4360761;32;20148;-73
2023/03/10 11:06:15;;;;;;;0.60;0.60;;;8.70;99.90;;;;;;4363613;32;20239;-73
2023/03/10 11:08:49;;;;;;;0.37;0.37;;;8.90;99.90;;;;;;4358477;32;20746;-72
2023/03/10 11:11:33;;;;;;;0.50;0.50;;;8.80;99.90;;;;;;4351964;32;20153;-74
2023/03/10 11:14:25;;;;;;;0.60;0.60;;;8.70;99.90;;;;;;4369602;32;20105;-73
2023/03/10 11:16:58;;;;;;;0.50;0.50;;;8.70;99.90;;;;;;4344727;32;20635;-72
2023/03/10 11:19:56;;;;;;;0.45;0.45;;;8.60;99.90;;;;;;4369176;32;20093;-74
2023/03/10 11:22:56;;;;;;;0.50;0.50;;;8.50;99.90;;;;;;4356189;32;20109;-75
2023/03/10 11:25:31;;;;;;;0.68;0.62;;;8.40;99.90;;;;;;4366230;32;20109;-73
2023/03/10 11:28:23;;;;;;;0.43;0.43;;;8.40;99.90;;;;;;4381715;32;20122;-73
2023/03/10 11:31:01;;;;;;;0.30;0.30;;;8.40;99.90;;;;;;4370532;32;20107;-73
2023/03/10 11:33:51;;;;;;;0.47;0.47;;;8.50;99.90;;;;;;4376279;32;20113;-74
2023/03/10 11:36:45;;;;;;;0.60;0.60;;;8.50;99.90;;;;;;4373219;32;20082;-73
2023/03/10 11:39:23;;;;;;;1.12;0.98;;;8.50;99.90;;;;;;4372426;32;20537;-71
2023/03/10 11:41:53;;;;;;;0.52;0.52;;;8.40;99.90;;;;;;4379245;32;20500;-74
2023/03/10 11:44:42;;;;;;;2.33;0.70;;;8.40;99.90;;;;;;4417689;32;132053;-72
2023/03/10 11:47:41;;;;;;;0.70;0.70;;;8.30;99.90;;;;;;4403549;32;20122;-73
2023/03/10 11:50:37;;;;;;;0.50;0.50;;;8.20;99.90;;;;;;4397108;32;20113;-73
2023/03/10 11:53:12;;;;;;;0.50;0.50;;;8.20;99.90;;;;;;4398114;32;20120;-74
2023/03/10 11:55:38;;;;;;;0.52;0.52;;;8.20;99.90;;;;;;4380948;32;20233;-75
2023/03/10 11:58:04;;;;;;;0.37;0.37;;;8.20;99.90;;;;;;4382867;32;20751;-74
2023/03/10 12:00:37;;;;;;;0.60;0.60;;;8.10;99.90;;;;;;4393766;32;20840;-76
2023/03/10 12:03:40;;;;;;;4.03;1.02;;;8.10;99.90;;;;;;4387469;32;20477;-74
2023/03/10 12:06:14;;;;;;;0.60;0.60;;;8.20;99.90;;;;;;4392547;32;21421;-74
2023/03/10 12:08:41;;;;;;;0.50;0.50;;;8.20;99.90;;;;;;4394853;32;20890;-74
2023/03/10 12:11:15;;;;;;;1.58;0.60;;;8.10;99.90;;;;;;4401941;32;20093;-73
2023/03/10 12:13:45;;;;;;;0.40;0.40;;;8.10;99.90;;;;;;4395432;32;20065;-75
2023/03/10 12:16:18;;;;;;;0.60;0.60;;;8.10;99.90;;;;;;4400243;32;20089;-73
2023/03/10 12:18:45;;;;;;;0.55;0.55;;;8.20;99.90;;;;;;4401658;32;20085;-74
2023/03/10 12:21:20;;;;;;;0.40;0.40;;;8.30;99.90;;;;;;4404804;32;20117;-72
2023/03/10 12:23:49;;;;;;;0.70;0.70;;;8.50;99.90;;;;;;4402845;32;20568;-74
2023/03/10 12:26:37;;;;;;;0.57;0.57;;;8.80;99.90;;;;;;4391966;32;20352;-73
2023/03/10 12:29:31;;;;;;;0.57;0.57;;;8.90;99.90;;;;;;4389999;32;20190;-74
2023/03/10 12:31:58;;;;;;;0.50;0.50;;;9.40;99.90;;;;;;4389897;32;20111;-74
2023/03/10 12:34:27;;;;;;;0.70;0.65;;;9.60;99.90;;;;;;4395532;32;20081;-74
2023/03/10 12:37:04;;;;;;;0.50;0.50;;;9.60;99.90;;;;;;4391014;32;20566;-73
2023/03/10 12:39:36;;;;;;;2.25;1.00;;;9.40;99.90;;;;;;4396460;32;20167;-74
2023/03/10 12:42:05;;;;;;;0.50;0.50;;;9.20;99.90;;;;;;4381383;32;20097;-73
2023/03/10 12:44:43;;;;;;;0.40;0.40;;;9.00;99.90;;;;;;4380429;32;21461;-72
2023/03/10 12:47:20;;;;;;;0.47;0.47;;;8.90;99.90;;;;;;4388458;32;20443;-73
2023/03/10 12:49:59;;;;;;;0.47;0.47;;;9.00;99.90;;;;;;4393310;32;20925;-73
2023/03/10 12:52:30;;;;;;;0.43;0.43;;;9.30;99.90;;;;;;4399941;32;20205;-75
2023/03/10 12:55:19;;;;;;;1.67;0.68;;;9.70;99.90;;;;;;4391324;32;20074;-72
2023/03/10 12:57:55;;;;;;;2.40;1.15;;;10.00;99.90;;;;;;4387673;32;20092;-72
2023/03/10 13:00:26;;;;;;;1.58;1.15;;;10.10;99.90;;;;;;4386904;32;20101;-74
2023/03/10 13:03:01;;;;;;;0.40;0.40;;;10.00;99.90;;;;;;4388167;32;20171;-72
2023/03/10 13:05:34;;;;;;;0.40;0.40;;;10.10;99.90;;;;;;4397105;32;20081;-75
2023/03/10 13:08:04;;;;;;;0.50;0.50;;;10.10;99.90;;;;;;4392221;32;20084;-74